Toronto Islands, Canada
Current Conditions -  °F | °C
As of 5:00 PM on Sunday 21 Dec 2014 (Local Time) from CYTZ Reporting Station
Broken Clouds Broken Clouds  
Wind Chill: 32°   Ceiling: 3800
Heat Index: 32°   Visibility: 9mi
Dew Point: 23°   Wind: 3mph
Humidity: 69%   Direction: 170°S
Pressure: 30.3"   Gusts: NA
Location:  43.62°N, 79.38°W
Report Text: CYTZ 212200Z AUTO 17003KT 9SM BKN038 00/M05 A3030 RMK SLP265
Loading
Personal Weather Stations






























Interactive Weather Map New forecast layout! Learn more

10-Day Weather Forecast

Advertisements
Track Severe Weather on mobile